createdAt,value
2023-03-17T00:01:11.858Z,1.80
2023-03-17T00:03:41.609Z,1.38
2023-03-17T00:06:28.054Z,1.42
2023-03-17T00:08:54.914Z,1.65
2023-03-17T00:11:22.141Z,1.50
2023-03-17T00:13:49.562Z,1.40
2023-03-17T00:16:23.403Z,1.63
2023-03-17T00:18:50.520Z,1.60
2023-03-17T00:21:22.750Z,1.60
2023-03-17T00:23:51.781Z,1.50
2023-03-17T00:26:19.713Z,1.45
2023-03-17T00:28:47.069Z,2.13
2023-03-17T00:31:21.548Z,1.50
2023-03-17T00:33:49.372Z,1.77
2023-03-17T00:36:21.407Z,1.38
2023-03-17T00:38:48.637Z,1.60
2023-03-17T00:41:16.065Z,1.65
2023-03-17T00:43:43.049Z,1.40
2023-03-17T00:46:11.939Z,1.40
2023-03-17T00:48:39.163Z,1.58
2023-03-17T00:51:06.354Z,2.33
2023-03-17T00:53:33.283Z,1.65
2023-03-17T00:56:00.528Z,1.52
2023-03-17T00:58:29.038Z,1.33
2023-03-17T01:00:56.134Z,1.60
2023-03-17T01:03:23.110Z,2.35
2023-03-17T01:05:51.371Z,1.40
2023-03-17T01:08:19.297Z,1.75
2023-03-17T01:10:46.083Z,2.20
2023-03-17T01:13:13.963Z,1.67
2023-03-17T01:15:43.696Z,2.03
2023-03-17T01:18:12.015Z,1.80
2023-03-17T01:20:39.582Z,1.50
2023-03-17T01:23:07.140Z,1.52
2023-03-17T01:25:34.309Z,1.65
2023-03-17T01:28:01.150Z,1.15
2023-03-17T01:30:38.916Z,1.40
2023-03-17T01:33:07.004Z,1.30
2023-03-17T01:35:33.926Z,1.35
2023-03-17T01:38:00.932Z,2.10
2023-03-17T01:40:30.727Z,1.58
2023-03-17T01:43:10.614Z,2.20
2023-03-17T01:46:15.186Z,2.15
2023-03-17T01:49:18.002Z,2.17
2023-03-17T01:52:07.482Z,1.95
2023-03-17T01:54:50.600Z,2.03
2023-03-17T01:57:30.143Z,2.30
2023-03-17T02:00:12.022Z,1.95
2023-03-17T02:02:40.640Z,1.92
2023-03-17T02:05:09.502Z,1.77
2023-03-17T02:07:36.772Z,1.85
2023-03-17T02:10:04.596Z,2.22
2023-03-17T02:15:12.757Z,2.33
2023-03-17T02:17:40.294Z,2.80
2023-03-17T02:20:16.298Z,2.83
2023-03-17T02:22:44.743Z,2.47
2023-03-17T02:25:12.413Z,2.47
2023-03-17T02:27:42.109Z,1.90
2023-03-17T02:30:14.148Z,2.17
2023-03-17T02:32:41.278Z,2.42
2023-03-17T02:35:08.840Z,2.42
2023-03-17T02:37:35.724Z,2.10
2023-03-17T02:40:02.947Z,2.65
2023-03-17T02:42:29.805Z,2.42
2023-03-17T02:44:56.844Z,2.13
2023-03-17T02:47:23.902Z,2.25
2023-03-17T02:49:50.767Z,2.45
2023-03-17T02:52:17.572Z,2.65
2023-03-17T02:54:44.597Z,2.58
2023-03-17T02:57:11.721Z,2.60
2023-03-17T02:59:38.666Z,2.85
2023-03-17T03:02:05.775Z,2.35
2023-03-17T03:04:33.116Z,3.88
2023-03-17T03:07:00.647Z,3.22
2023-03-17T03:09:27.533Z,3.20
2023-03-17T03:11:54.505Z,2.38
2023-03-17T03:14:21.326Z,3.70
2023-03-17T03:16:48.346Z,2.60
2023-03-17T03:19:15.108Z,3.22
2023-03-17T03:21:42.225Z,2.80
2023-03-17T03:24:09.359Z,3.10
2023-03-17T03:26:36.193Z,3.15
2023-03-17T03:29:03.939Z,2.80
2023-03-17T03:31:31.157Z,2.72
2023-03-17T03:33:58.043Z,2.95
2023-03-17T03:36:25.548Z,3.40
2023-03-17T03:38:52.255Z,3.28
2023-03-17T03:41:19.072Z,3.00
2023-03-17T03:43:46.230Z,3.25
2023-03-17T03:46:13.023Z,3.60
2023-03-17T03:48:39.795Z,4.03
2023-03-17T03:51:06.884Z,4.22
2023-03-17T03:53:33.878Z,3.75
2023-03-17T03:56:00.924Z,4.28
2023-03-17T03:58:27.877Z,4.10
2023-03-17T04:00:54.728Z,3.50
2023-03-17T04:03:21.685Z,3.67
2023-03-17T04:05:48.605Z,4.55
2023-03-17T04:08:15.471Z,4.50
2023-03-17T04:10:42.576Z,4.10
2023-03-17T04:13:09.649Z,4.18
2023-03-17T04:15:38.792Z,4.97
2023-03-17T04:18:05.745Z,5.15
2023-03-17T04:20:33.232Z,4.32
2023-03-17T04:23:00.214Z,4.53
2023-03-17T04:25:27.142Z,4.72
2023-03-17T04:27:54.109Z,4.25
2023-03-17T04:30:20.849Z,4.03
2023-03-17T04:32:47.671Z,3.75
2023-03-17T04:35:16.100Z,4.47
2023-03-17T04:37:42.943Z,4.18
2023-03-17T04:40:10.749Z,4.28
2023-03-17T04:42:37.932Z,3.72
2023-03-17T04:45:06.450Z,3.55
2023-03-17T04:47:33.565Z,3.08
2023-03-17T04:50:01.348Z,3.42
2023-03-17T04:52:28.506Z,2.78
2023-03-17T04:54:55.429Z,3.35
2023-03-17T04:57:22.781Z,3.38
2023-03-17T04:59:49.614Z,2.85
2023-03-17T05:02:16.401Z,2.60
2023-03-17T05:04:43.433Z,2.78
2023-03-17T05:07:10.284Z,2.40
2023-03-17T05:09:37.916Z,2.92
2023-03-17T05:12:05.292Z,3.15
2023-03-17T05:14:32.224Z,2.40
2023-03-17T05:16:59.108Z,3.13
2023-03-17T05:19:26.923Z,3.08
2023-03-17T05:21:53.773Z,2.88
2023-03-17T05:24:21.081Z,2.55
2023-03-17T05:26:48.068Z,2.72
2023-03-17T05:29:14.918Z,2.97
2023-03-17T05:31:54.186Z,3.08
2023-03-17T05:34:21.090Z,3.30
2023-03-17T05:36:48.075Z,2.75
2023-03-17T05:39:15.082Z,3.03
2023-03-17T05:41:45.364Z,3.63
2023-03-17T05:44:12.370Z,3.58
2023-03-17T05:46:39.212Z,3.45
2023-03-17T05:49:06.372Z,3.38
2023-03-17T05:51:34.808Z,3.20
2023-03-17T05:54:03.438Z,3.95
2023-03-17T05:56:33.947Z,4.07
2023-03-17T05:59:01.716Z,3.28
2023-03-17T06:01:29.317Z,4.28
2023-03-17T06:03:56.330Z,4.03
2023-03-17T06:06:24.630Z,4.32
2023-03-17T06:08:51.821Z,5.45
2023-03-17T06:11:20.768Z,5.38
2023-03-17T06:13:48.029Z,4.88
2023-03-17T06:16:15.135Z,5.07
2023-03-17T06:18:42.033Z,6.32
2023-03-17T06:21:08.847Z,5.38
2023-03-17T06:23:36.601Z,5.60
2023-03-17T06:26:03.613Z,6.30
2023-03-17T06:28:30.713Z,6.60
2023-03-17T06:30:58.176Z,5.38
2023-03-17T06:33:25.473Z,6.25
2023-03-17T06:35:52.735Z,5.15
2023-03-17T06:38:20.866Z,5.53
2023-03-17T06:40:48.207Z,5.90
2023-03-17T06:43:15.288Z,6.00
2023-03-17T06:45:42.147Z,6.03
2023-03-17T06:48:09.325Z,6.10
2023-03-17T06:50:36.447Z,6.35
2023-03-17T06:53:03.440Z,5.85
2023-03-17T06:55:30.660Z,6.18
2023-03-17T06:57:59.008Z,5.75
2023-03-17T07:00:26.051Z,6.13
2023-03-17T07:02:52.836Z,5.28
2023-03-17T07:05:19.744Z,5.95
2023-03-17T07:07:46.576Z,6.60
2023-03-17T07:10:15.966Z,6.40
2023-03-17T07:12:42.935Z,6.80
2023-03-17T07:15:12.482Z,7.20
2023-03-17T07:17:39.455Z,6.32
2023-03-17T07:20:06.682Z,7.80
2023-03-17T07:22:33.913Z,6.60
2023-03-17T07:25:01.036Z,6.53
2023-03-17T07:27:27.938Z,7.68
2023-03-17T07:29:54.868Z,6.70
2023-03-17T07:32:21.897Z,6.45
2023-03-17T07:34:49.403Z,7.50
2023-03-17T07:37:16.581Z,5.88
2023-03-17T07:39:43.809Z,5.72
2023-03-17T07:42:12.505Z,6.38
2023-03-17T07:44:41.791Z,6.55
2023-03-17T07:47:09.400Z,6.72
2023-03-17T07:49:42.566Z,6.03
2023-03-17T07:52:10.430Z,5.72
2023-03-17T07:54:37.917Z,7.40
2023-03-17T07:57:05.520Z,7.10
2023-03-17T07:59:32.851Z,6.40
2023-03-17T08:02:01.547Z,5.45
2023-03-17T08:04:29.253Z,4.93
2023-03-17T08:06:57.326Z,5.10
2023-03-17T08:09:24.545Z,4.25
2023-03-17T08:11:51.594Z,4.10
2023-03-17T08:14:18.523Z,3.90
2023-03-17T08:16:45.444Z,4.03
2023-03-17T08:19:13.812Z,3.83
2023-03-17T08:21:41.580Z,3.80
2023-03-17T08:24:08.713Z,3.38
2023-03-17T08:26:36.332Z,3.38
2023-03-17T08:29:05.153Z,4.05
2023-03-17T08:31:34.062Z,3.60
2023-03-17T08:34:02.725Z,3.63
2023-03-17T08:36:29.800Z,3.60
2023-03-17T08:38:57.319Z,3.15
2023-03-17T08:41:24.617Z,4.07
2023-03-17T08:43:51.774Z,3.22
2023-03-17T08:46:25.446Z,3.20
2023-03-17T08:48:53.015Z,2.80
2023-03-17T08:51:23.647Z,3.55
2023-03-17T08:53:51.846Z,3.67
2023-03-17T08:56:18.985Z,2.90
2023-03-17T08:58:46.398Z,3.05
2023-03-17T09:01:13.509Z,3.40
2023-03-17T09:03:41.052Z,3.30
2023-03-17T09:06:09.583Z,3.17
2023-03-17T09:08:39.911Z,2.85
2023-03-17T09:11:07.580Z,2.80
2023-03-17T09:13:34.872Z,2.53
2023-03-17T09:16:02.806Z,2.17
2023-03-17T09:18:31.490Z,2.67
2023-03-17T09:21:03.157Z,1.50
2023-03-17T09:23:30.125Z,1.65
2023-03-17T09:26:00.061Z,1.48
2023-03-17T09:28:26.911Z,1.58
2023-03-17T09:31:01.598Z,1.58
2023-03-17T09:33:28.939Z,1.95
2023-03-17T09:35:57.360Z,2.22
2023-03-17T09:38:25.155Z,1.98
2023-03-17T09:41:05.618Z,1.75
2023-03-17T09:43:39.020Z,1.98
2023-03-17T09:46:31.694Z,2.30
2023-03-17T09:49:09.598Z,2.47
2023-03-17T09:51:36.700Z,2.58
2023-03-17T09:54:39.612Z,3.03
2023-03-17T09:57:21.290Z,2.33
2023-03-17T09:59:55.277Z,1.88
2023-03-17T10:02:30.136Z,2.08
2023-03-17T10:04:57.637Z,1.90
2023-03-17T10:07:36.281Z,1.90
2023-03-17T10:10:05.830Z,1.83
2023-03-17T10:12:41.255Z,1.90
2023-03-17T10:15:38.943Z,1.40
2023-03-17T10:18:10.356Z,1.13
2023-03-17T10:20:38.562Z,1.35
2023-03-17T10:23:08.578Z,1.00
2023-03-17T10:25:36.562Z,1.00
2023-03-17T10:28:24.824Z,1.30
2023-03-17T10:30:52.693Z,0.70
2023-03-17T10:33:19.593Z,0.90
2023-03-17T10:35:47.670Z,0.88
2023-03-17T10:38:22.073Z,0.80
2023-03-17T10:41:12.765Z,0.70
2023-03-17T10:43:45.874Z,1.02
2023-03-17T10:46:30.179Z,0.40
2023-03-17T10:49:00.178Z,0.77
2023-03-17T10:51:32.233Z,0.70
2023-03-17T10:54:04.281Z,1.00
2023-03-17T10:56:36.580Z,0.80
2023-03-17T10:59:16.425Z,0.80
2023-03-17T11:02:02.216Z,0.70
2023-03-17T11:04:33.197Z,0.93
2023-03-17T11:07:01.601Z,0.90
2023-03-17T11:09:30.846Z,1.00
2023-03-17T11:12:22.362Z,0.77
2023-03-17T11:14:51.050Z,0.90
2023-03-17T11:17:50.108Z,1.08
2023-03-17T11:20:36.441Z,1.30
2023-03-17T11:23:24.413Z,1.38
2023-03-17T11:26:00.563Z,1.30
2023-03-17T11:28:33.842Z,1.45
2023-03-17T11:31:10.148Z,2.03
2023-03-17T11:33:47.185Z,1.75
2023-03-17T11:36:25.739Z,1.52
2023-03-17T11:38:55.633Z,2.03
2023-03-17T11:41:44.961Z,1.23
2023-03-17T11:44:49.272Z,1.45
2023-03-17T11:47:19.252Z,1.45
2023-03-17T11:49:49.589Z,1.60
2023-03-17T11:52:30.089Z,1.40
2023-03-17T11:55:25.138Z,1.40
2023-03-17T11:58:01.111Z,1.52
2023-03-17T12:00:46.443Z,1.77
2023-03-17T12:03:23.327Z,1.65
2023-03-17T12:05:51.776Z,1.88
2023-03-17T12:08:34.257Z,2.00
2023-03-17T12:11:02.104Z,1.88
2023-03-17T12:13:39.267Z,2.05
2023-03-17T12:16:17.669Z,2.10
2023-03-17T12:19:19.464Z,2.08
2023-03-17T12:22:36.437Z,1.77
2023-03-17T12:25:10.167Z,2.33
2023-03-17T12:28:01.434Z,2.25
2023-03-17T12:30:49.607Z,2.25
2023-03-17T12:33:28.939Z,1.55
2023-03-17T12:35:58.418Z,2.00
2023-03-17T12:38:38.363Z,1.80
2023-03-17T12:41:11.152Z,1.65
2023-03-17T12:43:48.836Z,1.90
2023-03-17T12:46:28.966Z,1.60
2023-03-17T12:49:27.133Z,1.70
2023-03-17T12:52:24.543Z,1.50
2023-03-17T12:54:52.189Z,1.70
2023-03-17T12:57:21.509Z,1.20
2023-03-17T12:59:49.735Z,1.30
2023-03-17T13:02:31.694Z,1.70
2023-03-17T13:05:01.081Z,1.45
2023-03-17T13:07:47.675Z,1.30
2023-03-17T13:10:36.406Z,1.27
2023-03-17T13:13:21.551Z,1.10
2023-03-17T13:15:51.400Z,1.10
2023-03-17T13:18:18.897Z,0.90
2023-03-17T13:20:53.374Z,0.80
2023-03-17T13:23:22.333Z,1.02
2023-03-17T13:25:53.798Z,0.90
2023-03-17T13:28:33.707Z,1.30
2023-03-17T13:31:31.017Z,1.10
2023-03-17T13:34:03.637Z,1.05
2023-03-17T13:36:38.242Z,0.77
2023-03-17T13:39:27.306Z,1.10
2023-03-17T13:42:19.463Z,1.23
2023-03-17T13:45:24.278Z,1.30
2023-03-17T13:47:51.408Z,1.38
2023-03-17T13:50:31.179Z,1.27
2023-03-17T13:53:02.859Z,1.73
2023-03-17T13:55:35.074Z,1.45
2023-03-17T13:58:10.893Z,2.33
2023-03-17T14:00:44.155Z,1.13
2023-03-17T14:03:28.134Z,0.63
2023-03-17T14:05:55.714Z,0.80
2023-03-17T14:08:55.401Z,0.70
2023-03-17T14:11:41.053Z,0.60
2023-03-17T14:14:33.521Z,0.77
2023-03-17T14:17:24.446Z,0.50
2023-03-17T14:20:13.976Z,0.75
2023-03-17T14:22:45.869Z,0.70
2023-03-17T14:25:20.938Z,2.00
2023-03-17T14:27:56.440Z,0.70
2023-03-17T14:30:31.775Z,0.50
2023-03-17T14:33:02.424Z,0.30
2023-03-17T14:35:32.521Z,0.40
2023-03-17T14:38:01.089Z,0.50
2023-03-17T14:40:29.966Z,0.30
2023-03-17T14:42:57.640Z,0.32
2023-03-17T14:45:31.323Z,0.40
2023-03-17T14:50:33.586Z,0.40
2023-03-17T14:53:01.082Z,0.40
2023-03-17T14:55:43.076Z,0.30
2023-03-17T14:58:18.631Z,0.40
2023-03-17T15:00:46.426Z,0.40
2023-03-17T15:03:19.382Z,0.30
2023-03-17T15:05:46.723Z,0.57
2023-03-17T15:08:36.334Z,0.40
2023-03-17T15:11:04.377Z,0.30
2023-03-17T15:13:33.866Z,0.57
2023-03-17T15:16:07.544Z,0.30
2023-03-17T15:18:34.338Z,0.50
2023-03-17T15:21:01.178Z,0.40
2023-03-17T15:23:29.018Z,0.30
2023-03-17T15:25:56.707Z,0.40
2023-03-17T15:28:32.051Z,0.45
2023-03-17T15:31:06.006Z,0.40
2023-03-17T15:36:04.418Z,0.32
2023-03-17T15:38:33.809Z,0.68
2023-03-17T15:41:01.164Z,0.50
2023-03-17T15:43:28.781Z,0.50
2023-03-17T15:46:01.773Z,0.50
2023-03-17T15:48:29.995Z,0.70
2023-03-17T15:50:57.520Z,0.50
2023-03-17T15:54:07.280Z,0.50
2023-03-17T15:56:34.931Z,0.50
2023-03-17T15:59:02.677Z,0.80
2023-03-17T16:01:32.726Z,0.35
2023-03-17T16:03:59.645Z,0.40
2023-03-17T16:06:26.667Z,0.50
2023-03-17T16:08:53.646Z,0.50
2023-03-17T16:11:28.111Z,0.40
2023-03-17T16:13:56.391Z,0.40
2023-03-17T16:16:31.667Z,0.55
2023-03-17T16:18:58.498Z,0.43
2023-03-17T16:21:25.648Z,0.90
2023-03-17T16:23:52.710Z,0.50
2023-03-17T16:26:19.508Z,2.28
2023-03-17T16:28:47.627Z,0.40
2023-03-17T16:31:18.407Z,0.60
2023-03-17T16:33:45.625Z,0.80
2023-03-17T16:36:17.603Z,0.65
2023-03-17T16:38:44.642Z,0.63
2023-03-17T16:41:28.649Z,0.70
2023-03-17T16:44:01.573Z,0.50
2023-03-17T16:46:34.045Z,0.60
2023-03-17T16:49:03.686Z,0.83
2023-03-17T16:51:30.850Z,0.80
2023-03-17T16:54:01.826Z,0.80
2023-03-17T16:56:29.089Z,0.70
2023-03-17T16:58:56.832Z,0.82
2023-03-17T17:01:25.502Z,0.80
2023-03-17T17:03:52.738Z,0.80
2023-03-17T17:06:20.436Z,0.57
2023-03-17T17:08:48.423Z,0.70
2023-03-17T17:11:16.159Z,0.65
2023-03-17T17:13:44.241Z,0.60
2023-03-17T17:16:26.195Z,0.95
2023-03-17T17:21:37.003Z,0.85
2023-03-17T17:24:06.017Z,0.90
2023-03-17T17:26:34.757Z,0.95
2023-03-17T17:29:02.127Z,0.80
2023-03-17T17:31:30.086Z,0.80
2023-03-17T17:33:57.984Z,0.80
2023-03-17T17:36:28.624Z,0.88
2023-03-17T17:38:56.735Z,0.80
2023-03-17T17:41:27.298Z,0.90
2023-03-17T17:43:56.478Z,0.85
2023-03-17T17:46:25.578Z,1.00
2023-03-17T17:48:53.275Z,1.15
2023-03-17T17:51:20.568Z,1.00
2023-03-17T17:53:50.135Z,0.85
2023-03-17T17:56:18.158Z,0.80
2023-03-17T17:58:46.130Z,0.85
2023-03-17T18:01:14.985Z,0.80
2023-03-17T18:03:43.231Z,1.00
2023-03-17T18:06:13.433Z,0.93
2023-03-17T18:09:08.202Z,1.20
2023-03-17T18:11:38.969Z,0.90
2023-03-17T18:14:07.892Z,0.93
2023-03-17T18:16:38.640Z,1.00
2023-03-17T18:19:14.944Z,0.90
2023-03-17T18:21:48.601Z,1.00
2023-03-17T18:24:18.507Z,1.20
2023-03-17T18:26:48.646Z,1.13
2023-03-17T18:29:18.513Z,1.10
2023-03-17T18:31:51.454Z,1.73
2023-03-17T18:34:30.874Z,1.35
2023-03-17T18:37:13.345Z,1.25
2023-03-17T18:39:43.390Z,1.33
2023-03-17T18:42:41.847Z,1.23
2023-03-17T18:45:36.396Z,1.33
2023-03-17T18:48:06.335Z,1.35
2023-03-17T18:50:45.618Z,1.10
2023-03-17T18:53:15.967Z,1.10
2023-03-17T18:55:43.220Z,2.45
2023-03-17T18:58:12.623Z,2.08
2023-03-17T19:01:04.812Z,1.55
2023-03-17T19:03:38.821Z,3.45
2023-03-17T19:06:20.518Z,1.30
2023-03-17T19:08:50.111Z,1.10
2023-03-17T19:11:21.128Z,1.35
2023-03-17T19:13:50.405Z,1.70
2023-03-17T19:16:19.343Z,1.50
2023-03-17T19:21:43.898Z,1.60
2023-03-17T19:24:20.066Z,1.73
2023-03-17T19:26:49.003Z,1.98
2023-03-17T19:29:17.424Z,2.08
2023-03-17T19:31:48.370Z,2.03
2023-03-17T19:34:19.351Z,2.47
2023-03-17T19:36:50.344Z,2.95
2023-03-17T19:39:18.680Z,2.65
2023-03-17T19:41:50.904Z,3.03
2023-03-17T19:44:17.687Z,3.33
2023-03-17T19:46:44.934Z,2.85
2023-03-17T19:49:11.888Z,3.03
2023-03-17T19:51:39.635Z,2.78
2023-03-17T19:54:08.714Z,3.25
2023-03-17T19:56:39.909Z,4.47
2023-03-17T19:59:09.687Z,4.13
2023-03-17T20:01:38.449Z,3.55
2023-03-17T20:04:09.340Z,3.33
2023-03-17T20:06:36.752Z,3.65
2023-03-17T20:09:04.408Z,3.45
2023-03-17T20:11:35.143Z,4.00
2023-03-17T20:14:04.946Z,4.70
2023-03-17T20:16:33.813Z,5.60
2023-03-17T20:19:09.303Z,5.97
2023-03-17T20:21:38.206Z,6.07
2023-03-17T20:24:06.030Z,5.97
2023-03-17T20:26:34.304Z,6.30
2023-03-17T20:29:01.977Z,6.40
2023-03-17T20:31:29.293Z,6.18
2023-03-17T20:33:56.575Z,7.40
2023-03-17T20:36:23.803Z,8.73
2023-03-17T20:38:51.159Z,7.30
2023-03-17T20:41:19.420Z,8.30
2023-03-17T20:43:47.009Z,8.95
2023-03-17T20:46:19.890Z,9.20
2023-03-17T20:48:48.390Z,8.77
2023-03-17T20:51:16.872Z,8.38
2023-03-17T20:53:47.679Z,9.25
2023-03-17T20:56:39.747Z,8.07
2023-03-17T20:59:09.461Z,8.40
2023-03-17T21:01:37.324Z,8.40
2023-03-17T21:04:09.227Z,8.90
2023-03-17T21:06:37.257Z,8.88
2023-03-17T21:09:04.788Z,8.02
2023-03-17T21:11:31.603Z,8.30
2023-03-17T21:13:59.290Z,8.65
2023-03-17T21:16:28.275Z,8.32
2023-03-17T21:18:55.611Z,8.73
2023-03-17T21:21:22.827Z,7.95
2023-03-17T21:23:49.775Z,7.75
2023-03-17T21:26:16.645Z,8.43
2023-03-17T21:28:43.859Z,7.95
2023-03-17T21:31:12.473Z,7.20
2023-03-17T21:33:42.525Z,6.80
2023-03-17T21:36:09.883Z,7.22
2023-03-17T21:38:40.717Z,7.15
2023-03-17T21:41:34.439Z,7.65
2023-03-17T21:44:04.310Z,8.43
2023-03-17T21:46:32.149Z,7.82
2023-03-17T21:48:59.144Z,7.25
2023-03-17T21:51:26.313Z,7.28
2023-03-17T21:53:53.834Z,7.18
2023-03-17T21:56:21.339Z,7.75
2023-03-17T21:58:49.073Z,6.15
2023-03-17T22:01:18.655Z,5.65
2023-03-17T22:03:46.130Z,6.25
2023-03-17T22:06:16.324Z,5.00
2023-03-17T22:08:44.122Z,5.57
2023-03-17T22:11:13.653Z,4.85
2023-03-17T22:13:41.198Z,5.30
2023-03-17T22:16:09.253Z,5.95
2023-03-17T22:18:36.905Z,5.15
2023-03-17T22:21:04.995Z,5.05
2023-03-17T22:23:33.055Z,5.45
2023-03-17T22:26:00.162Z,5.35
2023-03-17T22:28:27.242Z,5.28
2023-03-17T22:30:54.667Z,5.47
2023-03-17T22:33:21.833Z,5.03
2023-03-17T22:35:49.020Z,4.93
2023-03-17T22:38:16.183Z,4.50
2023-03-17T22:40:43.186Z,4.22
2023-03-17T22:43:10.750Z,3.75
2023-03-17T22:45:37.848Z,3.88
2023-03-17T22:48:04.970Z,4.50
2023-03-17T22:50:32.077Z,4.38
2023-03-17T22:52:59.333Z,4.68
2023-03-17T22:55:26.429Z,4.07
2023-03-17T22:57:53.641Z,4.35
2023-03-17T23:00:23.139Z,4.32
2023-03-17T23:02:50.125Z,4.68
2023-03-17T23:05:18.339Z,4.55
2023-03-17T23:07:53.040Z,4.53
2023-03-17T23:10:23.442Z,4.65
2023-03-17T23:12:51.994Z,5.15
2023-03-17T23:15:19.803Z,4.80
2023-03-17T23:17:47.629Z,4.80
2023-03-17T23:20:15.259Z,3.95
2023-03-17T23:22:42.390Z,4.55
2023-03-17T23:25:09.650Z,4.70
2023-03-17T23:27:36.798Z,4.07
2023-03-17T23:30:04.357Z,6.00
2023-03-17T23:32:32.226Z,4.47
2023-03-17T23:34:59.802Z,4.70
2023-03-17T23:37:27.441Z,4.80
2023-03-17T23:39:55.138Z,4.68
2023-03-17T23:42:22.538Z,5.10
2023-03-17T23:44:50.479Z,5.57
2023-03-17T23:47:20.665Z,5.32
2023-03-17T23:49:54.045Z,5.30
2023-03-17T23:52:22.012Z,5.78
2023-03-17T23:54:52.243Z,5.50
2023-03-17T23:57:19.629Z,5.32
2023-03-17T23:59:46.951Z,5.68
